createdAt,value
2018-02-20T00:02:03.629Z,51.00
2018-02-20T00:04:31.245Z,50.40
2018-02-20T00:06:59.578Z,54.43
2018-02-20T00:09:27.140Z,48.10
2018-02-20T00:11:54.751Z,49.27
2018-02-20T00:14:22.375Z,56.53
2018-02-20T00:16:50.051Z,47.70
2018-02-20T00:19:17.701Z,48.10
2018-02-20T00:21:46.059Z,43.77
2018-02-20T00:24:13.649Z,45.10
2018-02-20T00:26:41.217Z,45.43
2018-02-20T00:29:09.590Z,53.43
2018-02-20T00:31:37.938Z,41.70
2018-02-20T00:34:05.508Z,46.70
2018-02-20T00:36:33.213Z,41.80
2018-02-20T00:39:00.830Z,45.00
2018-02-20T00:41:28.487Z,49.20
2018-02-20T00:43:56.056Z,43.63
2018-02-20T00:46:23.679Z,38.03
2018-02-20T00:48:51.244Z,41.13
2018-02-20T00:51:18.813Z,49.00
2018-02-20T00:53:46.420Z,42.40
2018-02-20T00:56:14.773Z,44.40
2018-02-20T00:58:42.403Z,42.57
2018-02-20T01:01:09.961Z,43.20
2018-02-20T01:03:37.533Z,41.80
2018-02-20T01:06:05.161Z,42.57
2018-02-20T01:08:32.733Z,43.20
2018-02-20T01:11:00.315Z,41.93
2018-02-20T01:13:27.915Z,38.73
2018-02-20T01:15:56.268Z,46.93
2018-02-20T01:18:23.905Z,43.27
2018-02-20T01:20:51.486Z,45.27
2018-02-20T01:23:19.093Z,48.53
2018-02-20T01:25:46.724Z,41.20
2018-02-20T01:28:14.281Z,46.43
2018-02-20T01:30:41.912Z,44.20
2018-02-20T01:33:09.471Z,51.33
2018-02-20T01:35:37.044Z,47.80
2018-02-20T01:38:04.650Z,46.30
2018-02-20T01:40:32.219Z,50.77
2018-02-20T01:42:59.813Z,50.10
2018-02-20T01:45:27.392Z,47.10
2018-02-20T01:47:55.003Z,53.07
2018-02-20T01:50:22.572Z,49.97
2018-02-20T01:52:50.153Z,50.47
2018-02-20T01:55:17.748Z,47.37
2018-02-20T01:57:45.369Z,48.07
2018-02-20T02:00:12.951Z,55.93
2018-02-20T02:02:40.506Z,51.20
2018-02-20T02:05:08.128Z,52.03
2018-02-20T02:07:35.694Z,53.13
2018-02-20T02:10:03.254Z,61.13
2018-02-20T02:12:30.861Z,51.27
2018-02-20T02:14:58.428Z,54.37
2018-02-20T02:17:26.048Z,55.03
2018-02-20T02:19:53.620Z,53.90
2018-02-20T02:22:21.198Z,56.87
2018-02-20T02:24:48.813Z,52.57
2018-02-20T02:27:16.404Z,56.60
2018-02-20T02:29:44.001Z,59.43
2018-02-20T02:32:12.352Z,62.73
2018-02-20T02:34:39.941Z,54.53
2018-02-20T02:37:08.317Z,55.53
2018-02-20T02:39:36.652Z,54.40
2018-02-20T02:42:04.268Z,51.43
2018-02-20T02:44:32.884Z,49.57
2018-02-20T02:47:00.455Z,59.50
2018-02-20T02:49:28.060Z,58.73
2018-02-20T02:51:56.416Z,50.50
2018-02-20T02:54:24.034Z,53.37
2018-02-20T02:56:51.621Z,62.33
2018-02-20T02:59:19.196Z,54.80
2018-02-20T03:01:46.779Z,54.97
2018-02-20T03:04:15.143Z,51.90
2018-02-20T03:06:42.696Z,56.43
2018-02-20T03:09:10.262Z,61.37
2018-02-20T03:11:37.844Z,58.47
2018-02-20T03:14:06.215Z,59.57
2018-02-20T03:16:34.555Z,61.63
2018-02-20T03:19:02.161Z,63.30
2018-02-20T03:21:30.497Z,58.20
2018-02-20T03:23:58.069Z,59.43
2018-02-20T03:26:25.698Z,56.57
2018-02-20T03:28:53.265Z,58.67
2018-02-20T03:31:20.832Z,59.87
2018-02-20T03:33:48.410Z,60.37
2018-02-20T03:36:15.981Z,66.80
2018-02-20T03:38:43.567Z,63.37
2018-02-20T03:41:11.145Z,56.67
2018-02-20T03:43:38.734Z,61.87
2018-02-20T03:46:06.304Z,58.23
2018-02-20T03:48:33.907Z,64.40
2018-02-20T03:51:01.483Z,59.43
2018-02-20T03:53:29.053Z,62.87
2018-02-20T03:55:56.656Z,67.40
2018-02-20T03:58:24.237Z,64.00
2018-02-20T04:00:52.582Z,62.20
2018-02-20T04:03:20.158Z,59.43
2018-02-20T04:05:47.712Z,57.53
2018-02-20T04:08:15.315Z,55.60
2018-02-20T04:10:42.865Z,61.27
2018-02-20T04:13:10.433Z,59.37
2018-02-20T04:15:38.038Z,64.10
2018-02-20T04:18:05.613Z,56.60
2018-02-20T04:20:33.210Z,56.17
2018-02-20T04:23:00.769Z,56.07
2018-02-20T04:25:28.360Z,58.73
2018-02-20T04:27:56.720Z,59.60
2018-02-20T04:30:24.302Z,54.00
2018-02-20T04:32:51.892Z,59.80
2018-02-20T04:35:19.454Z,50.00
2018-02-20T04:37:47.013Z,65.40
2018-02-20T04:40:14.598Z,59.57
2018-02-20T04:42:42.188Z,51.00
2018-02-20T04:45:09.772Z,54.53
2018-02-20T04:47:37.361Z,53.13
2018-02-20T04:50:05.693Z,57.87
2018-02-20T04:52:33.258Z,55.43
2018-02-20T04:55:00.858Z,52.80
2018-02-20T04:57:29.214Z,55.67
2018-02-20T04:59:56.772Z,50.17
2018-02-20T05:02:24.378Z,53.50
2018-02-20T05:04:51.960Z,62.20
2018-02-20T05:07:19.548Z,52.13
2018-02-20T05:09:47.167Z,61.33
2018-02-20T05:12:14.730Z,56.93
2018-02-20T05:14:42.307Z,55.63
2018-02-20T05:17:09.900Z,53.40
2018-02-20T05:19:39.082Z,48.87
2018-02-20T05:22:06.686Z,47.60
2018-02-20T05:24:35.027Z,52.83
2018-02-20T05:27:02.599Z,47.70
2018-02-20T05:29:30.200Z,49.27
2018-02-20T05:31:57.776Z,52.20
2018-02-20T05:34:25.369Z,47.93
2018-02-20T05:36:52.930Z,37.10
2018-02-20T05:39:20.515Z,35.10
2018-02-20T05:41:48.865Z,35.27
2018-02-20T05:44:16.461Z,36.27
2018-02-20T05:46:44.902Z,38.77
2018-02-20T05:49:13.277Z,37.37
2018-02-20T05:51:40.868Z,39.60
2018-02-20T05:54:08.445Z,32.50
2018-02-20T05:56:36.062Z,32.10
2018-02-20T05:59:03.624Z,30.33
2018-02-20T06:01:31.178Z,38.73
2018-02-20T06:03:58.746Z,31.43
2018-02-20T06:06:26.307Z,32.50
2018-02-20T06:08:53.897Z,31.10
2018-02-20T06:11:22.235Z,30.10
2018-02-20T06:13:49.844Z,29.47
2018-02-20T06:16:18.176Z,36.17
2018-02-20T06:18:45.735Z,29.00
2018-02-20T06:21:13.319Z,26.67
2018-02-20T06:23:40.894Z,25.13
2018-02-20T06:26:09.251Z,25.50
2018-02-20T06:28:36.818Z,27.70
2018-02-20T06:31:04.403Z,31.10
2018-02-20T06:33:31.988Z,24.43
2018-02-20T06:35:59.572Z,27.63
2018-02-20T06:38:27.169Z,28.23
2018-02-20T06:40:55.518Z,26.83
2018-02-20T06:43:23.105Z,32.00
2018-02-20T06:45:51.458Z,26.13
2018-02-20T06:48:19.037Z,33.10
2018-02-20T06:50:46.631Z,25.00
2018-02-20T06:53:14.210Z,24.70
2018-02-20T06:55:41.827Z,30.60
2018-02-20T06:58:09.409Z,32.60
2018-02-20T07:00:37.012Z,30.07
2018-02-20T07:03:04.562Z,28.80
2018-02-20T07:05:32.158Z,23.47
2018-02-20T07:07:59.727Z,22.90
2018-02-20T07:10:28.051Z,26.30
2018-02-20T07:12:55.664Z,25.67
2018-02-20T07:15:24.010Z,25.10
2018-02-20T07:17:51.576Z,26.47
2018-02-20T07:20:19.193Z,24.83
2018-02-20T07:22:46.791Z,28.20
2018-02-20T07:25:14.365Z,25.93
2018-02-20T07:27:41.955Z,26.47
2018-02-20T07:30:10.292Z,25.97
2018-02-20T07:32:37.887Z,23.93
2018-02-20T07:35:05.450Z,30.20
2018-02-20T07:37:33.788Z,25.70
2018-02-20T07:40:01.382Z,36.57
2018-02-20T07:42:29.715Z,32.60
2018-02-20T07:44:57.300Z,26.13
2018-02-20T07:47:24.893Z,26.47
2018-02-20T07:49:52.476Z,26.63
2018-02-20T07:52:20.061Z,28.23
2018-02-20T07:54:47.622Z,29.33
2018-02-20T07:57:15.198Z,26.90
2018-02-20T07:59:42.802Z,29.33
2018-02-20T08:02:10.369Z,32.87
2018-02-20T08:04:37.939Z,30.63
2018-02-20T08:07:05.527Z,28.10
2018-02-20T08:09:33.139Z,26.97
2018-02-20T08:12:00.717Z,26.20
2018-02-20T08:14:28.292Z,31.53
2018-02-20T08:16:55.912Z,31.77
2018-02-20T08:19:23.491Z,27.83
2018-02-20T08:21:51.067Z,30.03
2018-02-20T08:24:18.643Z,27.73
2018-02-20T08:26:46.200Z,29.53
2018-02-20T08:29:13.782Z,34.60
2018-02-20T08:31:41.360Z,26.07
2018-02-20T08:34:09.716Z,24.47
2018-02-20T08:36:37.289Z,24.90
2018-02-20T08:39:05.649Z,24.30
2018-02-20T08:41:33.239Z,21.97
2018-02-20T08:44:01.563Z,21.87
2018-02-20T08:46:29.139Z,25.90
2018-02-20T08:48:56.731Z,27.83
2018-02-20T08:51:25.076Z,23.00
2018-02-20T08:53:52.674Z,21.00
2018-02-20T08:56:21.022Z,26.97
2018-02-20T08:58:48.624Z,29.87
2018-02-20T09:01:16.228Z,23.77
2018-02-20T09:03:43.805Z,26.03
2018-02-20T09:06:11.384Z,27.00
2018-02-20T09:08:39.734Z,23.73
2018-02-20T09:11:07.316Z,26.30
2018-02-20T09:13:34.898Z,29.17
2018-02-20T09:16:02.490Z,28.13
2018-02-20T09:18:30.072Z,27.03
2018-02-20T09:20:57.671Z,30.97
2018-02-20T09:23:26.012Z,28.10
2018-02-20T09:25:53.648Z,30.23
2018-02-20T09:28:21.198Z,26.13
2018-02-20T09:30:48.769Z,26.57
2018-02-20T09:33:16.355Z,27.20
2018-02-20T09:35:43.939Z,34.90
2018-02-20T09:38:12.281Z,32.57
2018-02-20T09:40:39.872Z,42.80
2018-02-20T09:43:08.226Z,40.27
2018-02-20T09:45:35.810Z,39.93
2018-02-20T09:48:04.141Z,40.20
2018-02-20T09:50:31.732Z,41.17
2018-02-20T09:52:59.294Z,41.50
2018-02-20T09:55:26.852Z,43.93
2018-02-20T09:57:54.446Z,51.50
2018-02-20T10:00:22.773Z,55.57
2018-02-20T10:02:50.338Z,48.50
2018-02-20T10:05:17.918Z,51.30
2018-02-20T10:07:45.479Z,47.50
2018-02-20T10:10:13.061Z,48.00
2018-02-20T10:12:41.396Z,47.07
2018-02-20T10:15:08.974Z,51.90
2018-02-20T10:17:36.548Z,46.93
2018-02-20T10:20:04.935Z,48.47
2018-02-20T10:22:33.252Z,41.27
2018-02-20T10:25:00.809Z,41.30
2018-02-20T10:27:28.393Z,32.33
2018-02-20T10:29:55.996Z,34.60
2018-02-20T10:32:24.354Z,36.57
2018-02-20T10:34:51.918Z,34.90
2018-02-20T10:37:20.262Z,33.30
2018-02-20T10:39:47.867Z,40.07
2018-02-20T10:42:16.195Z,31.77
2018-02-20T10:44:43.800Z,36.57
2018-02-20T10:47:12.121Z,40.00
2018-02-20T10:49:39.697Z,37.33
2018-02-20T10:52:07.298Z,36.10
2018-02-20T10:54:35.676Z,40.00
2018-02-20T10:57:04.007Z,38.67
2018-02-20T10:59:31.590Z,35.27
2018-02-20T11:01:59.159Z,36.00
2018-02-20T11:04:26.730Z,33.77
2018-02-20T11:06:55.115Z,31.27
2018-02-20T11:09:23.497Z,32.77
2018-02-20T11:11:51.067Z,29.83
2018-02-20T11:14:18.679Z,35.37
2018-02-20T11:16:46.260Z,32.17
2018-02-20T11:19:13.828Z,30.07
2018-02-20T11:21:42.181Z,29.10
2018-02-20T11:24:09.763Z,35.20
2018-02-20T11:26:38.099Z,28.60
2018-02-20T11:29:05.664Z,35.80
2018-02-20T11:31:33.244Z,33.90
2018-02-20T11:34:00.838Z,37.93
2018-02-20T11:36:29.170Z,34.80
2018-02-20T11:38:56.792Z,35.90
2018-02-20T11:41:24.363Z,35.87
2018-02-20T11:43:51.990Z,31.77
2018-02-20T11:46:19.556Z,32.33
2018-02-20T11:48:47.889Z,35.90
2018-02-20T11:51:15.480Z,32.30
2018-02-20T11:53:43.804Z,62.50
2018-02-20T11:56:11.397Z,32.93
2018-02-20T11:58:38.997Z,35.10
2018-02-20T12:01:06.570Z,41.13
2018-02-20T12:03:34.134Z,40.13
2018-02-20T12:06:01.749Z,32.80
2018-02-20T12:08:29.344Z,40.63
2018-02-20T12:10:56.916Z,37.43
2018-02-20T12:13:24.516Z,34.77
2018-02-20T12:15:52.087Z,34.53
2018-02-20T12:18:19.682Z,35.90
2018-02-20T12:20:47.284Z,41.17
2018-02-20T12:23:14.865Z,34.20
2018-02-20T12:25:42.454Z,42.97
2018-02-20T12:28:10.798Z,36.17
2018-02-20T12:30:38.357Z,46.97
2018-02-20T12:33:05.938Z,41.17
2018-02-20T12:35:34.278Z,46.90
2018-02-20T12:38:01.853Z,45.33
2018-02-20T12:40:29.442Z,44.90
2018-02-20T12:42:57.025Z,37.53
2018-02-20T12:45:24.625Z,44.40
2018-02-20T12:47:52.236Z,37.60
2018-02-20T12:50:19.828Z,46.90
2018-02-20T12:52:47.410Z,49.17
2018-02-20T12:55:15.087Z,50.97
2018-02-20T12:57:42.708Z,44.47
2018-02-20T13:00:10.270Z,46.07
2018-02-20T13:02:37.848Z,52.80
2018-02-20T13:05:05.439Z,48.17
2018-02-20T13:07:33.795Z,42.20
2018-02-20T13:10:02.149Z,41.37
2018-02-20T13:12:29.757Z,46.63
2018-02-20T13:14:58.104Z,48.63
2018-02-20T13:17:25.672Z,45.63
2018-02-20T13:19:53.269Z,49.47
2018-02-20T13:22:20.858Z,50.87
2018-02-20T13:24:48.436Z,45.80
2018-02-20T13:27:16.018Z,47.33
2018-02-20T13:29:43.575Z,47.33
2018-02-20T13:32:11.152Z,43.50
2018-02-20T13:34:39.476Z,50.80
2018-02-20T13:37:07.035Z,53.23
2018-02-20T13:39:34.621Z,49.07
2018-02-20T13:42:02.202Z,54.90
2018-02-20T13:44:29.762Z,51.77
2018-02-20T13:46:57.317Z,53.87
2018-02-20T13:49:24.916Z,51.80
2018-02-20T13:51:52.495Z,54.70
2018-02-20T13:54:20.063Z,57.77
2018-02-20T13:56:47.658Z,52.93
2018-02-20T13:59:15.219Z,54.93
2018-02-20T14:01:42.795Z,58.80
2018-02-20T14:04:11.150Z,51.30
2018-02-20T14:06:38.722Z,48.03
2018-02-20T14:09:07.078Z,51.40
2018-02-20T14:11:34.668Z,59.07
2018-02-20T14:14:03.011Z,50.30
2018-02-20T14:16:30.613Z,57.77
2018-02-20T14:18:58.214Z,52.03
2018-02-20T14:21:25.829Z,49.50
2018-02-20T14:23:54.159Z,57.47
2018-02-20T14:26:21.713Z,51.40
2018-02-20T14:28:49.317Z,53.53
2018-02-20T14:31:17.655Z,56.67
2018-02-20T14:33:45.298Z,54.13
2018-02-20T14:36:12.860Z,56.87
2018-02-20T14:38:40.436Z,55.20
2018-02-20T14:41:08.052Z,57.40
2018-02-20T14:43:36.403Z,57.50
2018-02-20T14:46:03.975Z,52.83
2018-02-20T14:48:32.336Z,60.57
2018-02-20T14:50:59.905Z,55.87
2018-02-20T14:53:27.632Z,54.07
2018-02-20T14:55:55.308Z,91.97
2018-02-20T14:58:22.886Z,142.03
2018-02-20T15:00:51.265Z,77.43
2018-02-20T15:03:18.857Z,173.60
2018-02-20T15:05:46.423Z,177.20
2018-02-20T15:08:14.035Z,158.70
2018-02-20T15:10:41.608Z,68.90
2018-02-20T15:13:09.223Z,66.33
2018-02-20T15:15:36.800Z,55.37
2018-02-20T15:18:04.367Z,62.20
2018-02-20T15:20:31.982Z,60.17
2018-02-20T15:22:59.575Z,55.17
2018-02-20T15:25:27.190Z,52.83
2018-02-20T15:27:55.528Z,50.10
2018-02-20T15:30:23.106Z,60.77
2018-02-20T15:32:50.697Z,69.97
2018-02-20T15:35:18.273Z,55.07
2018-02-20T15:37:45.870Z,49.63
2018-02-20T15:40:13.439Z,50.30
2018-02-20T15:42:41.010Z,55.30
2018-02-20T15:45:08.623Z,51.03
2018-02-20T15:47:36.196Z,50.30
2018-02-20T15:50:03.772Z,52.20
2018-02-20T15:52:31.346Z,54.87
2018-02-20T15:54:58.925Z,49.40
2018-02-20T15:57:27.287Z,49.23
2018-02-20T15:59:55.634Z,47.73
2018-02-20T16:02:23.207Z,56.53
2018-02-20T16:04:50.827Z,51.40
2018-02-20T16:07:18.425Z,60.07
2018-02-20T16:09:45.988Z,56.77
2018-02-20T16:12:13.587Z,60.00
2018-02-20T16:14:41.199Z,56.17
2018-02-20T16:17:08.828Z,50.77
2018-02-20T16:19:36.401Z,53.53
2018-02-20T16:22:03.995Z,45.70
2018-02-20T16:24:31.566Z,57.60
2018-02-20T16:26:59.147Z,49.13
2018-02-20T16:29:26.785Z,52.37
2018-02-20T16:31:54.342Z,50.30
2018-02-20T16:34:21.935Z,45.70
2018-02-20T16:36:49.498Z,44.63
2018-02-20T16:39:17.107Z,54.33
2018-02-20T16:41:44.687Z,62.87
2018-02-20T16:44:12.258Z,84.50
2018-02-20T16:46:40.603Z,79.03
2018-02-20T16:49:08.198Z,58.20
2018-02-20T16:51:36.592Z,63.00
2018-02-20T16:54:04.163Z,52.90
2018-02-20T16:56:31.731Z,68.37
2018-02-20T16:58:59.313Z,50.00
2018-02-20T17:01:26.871Z,51.23
2018-02-20T17:03:54.444Z,52.83
2018-02-20T17:06:22.113Z,53.00
2018-02-20T17:08:49.752Z,50.83
2018-02-20T17:11:17.320Z,51.77
2018-02-20T17:13:44.887Z,54.60
2018-02-20T17:16:12.512Z,51.40
2018-02-20T17:18:40.084Z,63.40
2018-02-20T17:21:07.666Z,55.10
2018-02-20T17:23:35.261Z,61.57
2018-02-20T17:26:03.615Z,62.40
2018-02-20T17:28:31.210Z,64.93
2018-02-20T17:30:59.526Z,59.80
2018-02-20T17:33:27.904Z,59.63
2018-02-20T17:35:55.467Z,57.13
2018-02-20T17:38:23.148Z,59.30
2018-02-20T17:40:50.749Z,59.43
2018-02-20T17:43:19.092Z,57.63
2018-02-20T17:45:46.677Z,68.10
2018-02-20T17:48:14.998Z,70.57
2018-02-20T17:50:42.600Z,62.70
2018-02-20T17:53:10.167Z,66.20
2018-02-20T17:55:38.526Z,63.30
2018-02-20T17:58:06.125Z,62.73
2018-02-20T18:00:34.466Z,63.10
2018-02-20T18:03:02.032Z,69.93
2018-02-20T18:05:29.627Z,66.07
2018-02-20T18:07:57.188Z,67.63
2018-02-20T18:10:24.784Z,62.40
2018-02-20T18:12:52.352Z,60.50
2018-02-20T18:15:19.994Z,60.90
2018-02-20T18:17:49.494Z,62.60
2018-02-20T18:20:17.148Z,66.17
2018-02-20T18:22:44.767Z,64.03
2018-02-20T18:25:13.156Z,61.83
2018-02-20T18:27:41.497Z,58.23
2018-02-20T18:30:09.066Z,58.07
2018-02-20T18:32:36.653Z,62.53
2018-02-20T18:35:04.982Z,58.40
2018-02-20T18:37:32.548Z,61.10
2018-02-20T18:40:00.383Z,71.20
2018-02-20T18:42:27.999Z,63.73
2018-02-20T18:44:55.591Z,58.03
2018-02-20T18:47:23.160Z,65.40
2018-02-20T18:49:50.846Z,60.20
2018-02-20T18:52:18.522Z,59.77
2018-02-20T18:54:46.094Z,62.60
2018-02-20T18:57:13.730Z,56.97
2018-02-20T18:59:41.294Z,57.30
2018-02-20T19:02:09.642Z,69.37
2018-02-20T19:04:37.339Z,59.90
2018-02-20T19:07:04.953Z,173.00
2018-02-20T19:09:33.338Z,61.17
2018-02-20T19:12:00.909Z,61.33
2018-02-20T19:14:28.475Z,62.57
2018-02-20T19:16:56.092Z,58.30
2018-02-20T19:19:23.676Z,62.70
2018-02-20T19:21:52.146Z,70.00
2018-02-20T19:24:19.807Z,66.43
2018-02-20T19:26:47.410Z,67.20
2018-02-20T19:29:14.985Z,62.30
2018-02-20T19:31:42.603Z,64.17
2018-02-20T19:34:10.177Z,73.93
2018-02-20T19:36:37.776Z,71.27
2018-02-20T19:39:05.375Z,66.13
2018-02-20T19:41:33.716Z,63.80
2018-02-20T19:44:01.306Z,68.63
2018-02-20T19:46:29.657Z,62.67
2018-02-20T19:48:57.264Z,66.57
2018-02-20T19:51:24.859Z,64.87
2018-02-20T19:53:52.412Z,65.70
2018-02-20T19:56:20.035Z,67.03
2018-02-20T19:58:48.385Z,58.20
2018-02-20T20:01:15.952Z,61.80
2018-02-20T20:03:44.354Z,63.83
2018-02-20T20:06:11.923Z,56.20
2018-02-20T20:08:39.487Z,64.90
2018-02-20T20:11:07.071Z,82.07
2018-02-20T20:13:34.652Z,61.20
2018-02-20T20:16:02.246Z,73.00
2018-02-20T20:18:30.590Z,62.10
2018-02-20T20:20:58.193Z,62.60
2018-02-20T20:23:26.559Z,61.67
2018-02-20T20:25:54.909Z,68.60
2018-02-20T20:28:22.488Z,63.00
2018-02-20T20:30:50.837Z,59.50
2018-02-20T20:33:18.403Z,65.30
2018-02-20T20:35:46.032Z,72.50
2018-02-20T20:38:13.623Z,64.27
2018-02-20T20:40:41.185Z,61.63
2018-02-20T20:43:08.870Z,69.93
2018-02-20T20:45:36.404Z,68.87
2018-02-20T20:48:03.984Z,71.40
2018-02-20T20:50:31.579Z,64.33
2018-02-20T20:52:59.150Z,62.47
2018-02-20T20:55:26.726Z,74.07
2018-02-20T20:57:54.296Z,69.77
2018-02-20T21:00:21.845Z,65.77
2018-02-20T21:02:49.447Z,80.70
2018-02-20T21:05:17.023Z,84.17
2018-02-20T21:07:45.366Z,73.00
2018-02-20T21:10:12.958Z,70.80
2018-02-20T21:12:41.276Z,65.40
2018-02-20T21:15:08.875Z,72.23
2018-02-20T21:17:36.438Z,66.93
2018-02-20T21:20:04.005Z,73.00
2018-02-20T21:22:32.353Z,76.50
2018-02-20T21:24:59.918Z,70.43
2018-02-20T21:27:27.516Z,68.33
2018-02-20T21:29:55.856Z,76.47
2018-02-20T21:32:23.442Z,73.03
2018-02-20T21:34:51.802Z,73.40
2018-02-20T21:37:19.382Z,68.23
2018-02-20T21:39:47.719Z,72.17
2018-02-20T21:42:15.305Z,84.93
2018-02-20T21:44:42.948Z,73.73
2018-02-20T21:47:10.645Z,69.43
2018-02-20T21:49:39.010Z,76.47
2018-02-20T21:52:06.573Z,70.67
2018-02-20T21:54:34.144Z,78.37
2018-02-20T21:57:02.509Z,71.07
2018-02-20T21:59:30.094Z,67.70
2018-02-20T22:01:58.413Z,71.57
2018-02-20T22:04:26.006Z,75.80
2018-02-20T22:06:53.582Z,79.30
2018-02-20T22:09:21.904Z,67.83
2018-02-20T22:11:49.500Z,73.63
2018-02-20T22:14:17.067Z,71.13
2018-02-20T22:16:44.651Z,70.63
2018-02-20T22:19:12.224Z,73.20
2018-02-20T22:21:39.791Z,64.23
2018-02-20T22:24:07.428Z,63.57
2018-02-20T22:26:35.025Z,68.07
2018-02-20T22:29:02.591Z,61.90
2018-02-20T22:31:30.203Z,69.97
2018-02-20T22:33:58.529Z,67.13
2018-02-20T22:36:26.100Z,63.57
2018-02-20T22:38:53.704Z,70.87
2018-02-20T22:41:22.059Z,66.27
2018-02-20T22:43:49.638Z,71.03
2018-02-20T22:46:17.978Z,76.80
2018-02-20T22:48:45.585Z,69.03
